createdAt,value
2023-04-03T00:00:42.768Z,50.32
2023-04-03T00:03:10.172Z,50.14
2023-04-03T00:05:37.691Z,49.88
2023-04-03T00:08:08.489Z,49.56
2023-04-03T00:10:39.347Z,49.01
2023-04-03T00:13:08.173Z,49.15
2023-04-03T00:15:35.591Z,48.14
2023-04-03T00:18:03.459Z,46.83
2023-04-03T00:20:31.159Z,46.66
2023-04-03T00:22:58.551Z,45.67
2023-04-03T00:25:26.026Z,44.83
2023-04-03T00:27:53.725Z,43.92
2023-04-03T00:30:21.576Z,42.70
2023-04-03T00:32:50.102Z,41.54
2023-04-03T00:35:18.762Z,39.57
2023-04-03T00:37:46.316Z,37.75
2023-04-03T00:40:15.159Z,35.03
2023-04-03T00:42:42.960Z,33.88
2023-04-03T00:45:23.574Z,32.16
2023-04-03T00:47:50.918Z,31.41
2023-04-03T00:50:18.881Z,30.67
2023-04-03T00:52:47.304Z,28.45
2023-04-03T00:55:15.422Z,27.41
2023-04-03T00:57:42.808Z,25.62
2023-04-03T01:00:12.191Z,25.29
2023-04-03T01:02:41.951Z,25.98
2023-04-03T01:05:10.995Z,25.31
2023-04-03T01:07:38.837Z,23.99
2023-04-03T01:10:09.033Z,23.51
2023-04-03T01:12:40.452Z,22.73
2023-04-03T01:15:27.071Z,23.59
2023-04-03T01:17:57.695Z,23.25
2023-04-03T01:20:37.692Z,22.28
2023-04-03T01:23:11.435Z,21.86
2023-04-03T01:25:43.727Z,21.79
2023-04-03T01:28:17.865Z,22.83
2023-04-03T01:30:54.819Z,22.39
2023-04-03T01:33:22.356Z,20.76
2023-04-03T01:35:50.595Z,21.15
2023-04-03T01:38:18.239Z,20.99
2023-04-03T01:40:45.545Z,20.03
2023-04-03T01:43:13.179Z,19.28
2023-04-03T01:45:40.690Z,19.21
2023-04-03T01:48:08.550Z,18.69
2023-04-03T01:50:36.354Z,17.88
2023-04-03T01:53:03.919Z,17.41
2023-04-03T01:55:31.121Z,17.34
2023-04-03T01:57:58.585Z,16.91
2023-04-03T02:00:26.879Z,16.81
2023-04-03T02:02:54.525Z,16.39
2023-04-03T02:05:21.615Z,16.18
2023-04-03T02:07:49.035Z,15.72
2023-04-03T02:10:16.354Z,15.27
2023-04-03T02:12:43.486Z,15.78
2023-04-03T02:15:11.003Z,15.21
2023-04-03T02:17:38.030Z,15.83
2023-04-03T02:20:05.900Z,14.98
2023-04-03T02:22:34.201Z,14.00
2023-04-03T02:25:01.632Z,14.18
2023-04-03T02:27:29.225Z,14.56
2023-04-03T02:29:56.567Z,14.68
2023-04-03T02:32:24.052Z,14.13
2023-04-03T02:34:51.721Z,14.71
2023-04-03T02:37:19.091Z,14.18
2023-04-03T02:39:47.854Z,15.05
2023-04-03T02:42:15.361Z,14.35
2023-04-03T02:44:43.242Z,15.10
2023-04-03T02:47:10.928Z,15.34
2023-04-03T02:49:38.336Z,15.09
2023-04-03T02:52:06.051Z,15.25
2023-04-03T02:54:33.211Z,15.55
2023-04-03T02:57:04.520Z,15.73
2023-04-03T02:59:32.409Z,15.85
2023-04-03T03:01:59.447Z,15.76
2023-04-03T03:04:26.984Z,16.04
2023-04-03T03:06:54.354Z,16.13
2023-04-03T03:09:21.705Z,16.16
2023-04-03T03:11:48.948Z,16.61
2023-04-03T03:14:16.294Z,16.53
2023-04-03T03:16:43.283Z,16.36
2023-04-03T03:19:10.741Z,17.30
2023-04-03T03:21:38.362Z,16.86
2023-04-03T03:24:06.279Z,17.23
2023-04-03T03:26:33.721Z,17.17
2023-04-03T03:29:02.970Z,17.31
2023-04-03T03:31:30.891Z,17.83
2023-04-03T03:33:58.268Z,16.91
2023-04-03T03:36:26.238Z,17.50
2023-04-03T03:38:53.616Z,16.90
2023-04-03T03:41:21.770Z,17.15
2023-04-03T03:43:48.926Z,17.80
2023-04-03T03:46:17.263Z,17.80
2023-04-03T03:48:44.676Z,18.46
2023-04-03T03:51:11.985Z,17.80
2023-04-03T03:53:40.054Z,17.61
2023-04-03T03:56:11.887Z,17.41
2023-04-03T03:58:41.252Z,17.64
2023-04-03T04:01:08.777Z,17.09
2023-04-03T04:03:42.310Z,17.67
2023-04-03T04:06:12.855Z,17.63
2023-04-03T04:08:40.453Z,17.38
2023-04-03T04:11:10.531Z,17.86
2023-04-03T04:13:38.909Z,18.17
2023-04-03T04:16:07.383Z,17.59
2023-04-03T04:18:35.439Z,17.44
2023-04-03T04:21:02.898Z,17.65
2023-04-03T04:23:30.342Z,17.53
2023-04-03T04:25:59.099Z,18.20
2023-04-03T04:28:27.736Z,17.28
2023-04-03T04:30:57.028Z,17.44
2023-04-03T04:33:27.058Z,17.33
2023-04-03T04:35:55.414Z,17.21
2023-04-03T04:38:22.607Z,17.75
2023-04-03T04:40:52.642Z,17.28
2023-04-03T04:43:20.946Z,17.83
2023-04-03T04:46:11.223Z,17.35
2023-04-03T04:48:43.794Z,16.69
2023-04-03T04:51:11.871Z,16.84
2023-04-03T04:53:39.876Z,17.09
2023-04-03T04:56:08.788Z,17.32
2023-04-03T04:58:38.310Z,16.77
2023-04-03T05:01:07.804Z,16.36
2023-04-03T05:03:38.565Z,16.54
2023-04-03T05:06:06.651Z,16.54
2023-04-03T05:08:35.682Z,15.96
2023-04-03T05:11:04.142Z,15.78
2023-04-03T05:13:32.165Z,15.79
2023-04-03T05:16:00.375Z,15.47
2023-04-03T05:18:28.311Z,15.02
2023-04-03T05:20:59.769Z,14.41
2023-04-03T05:23:27.694Z,13.95
2023-04-03T05:25:56.488Z,13.64
2023-04-03T05:28:24.381Z,13.06
2023-04-03T05:30:58.809Z,12.81
2023-04-03T05:33:32.043Z,12.44
2023-04-03T05:36:10.693Z,11.87
2023-04-03T05:38:43.677Z,12.64
2023-04-03T05:41:11.584Z,12.56
2023-04-03T05:43:39.659Z,12.38
2023-04-03T05:46:13.293Z,12.03
2023-04-03T05:48:42.369Z,12.18
2023-04-03T05:51:20.153Z,11.81
2023-04-03T05:53:51.483Z,11.92
2023-04-03T05:56:18.926Z,11.88
2023-04-03T05:58:46.235Z,11.81
2023-04-03T06:01:14.366Z,12.32
2023-04-03T06:03:41.617Z,12.12
2023-04-03T06:06:13.662Z,11.86
2023-04-03T06:08:40.899Z,11.73
2023-04-03T06:11:09.707Z,11.28
2023-04-03T06:13:38.021Z,12.09
2023-04-03T06:16:06.604Z,11.49
2023-04-03T06:18:33.609Z,11.51
2023-04-03T06:21:01.653Z,11.54
2023-04-03T06:23:28.769Z,11.58
2023-04-03T06:25:56.399Z,11.31
2023-04-03T06:28:23.480Z,10.74
2023-04-03T06:30:51.133Z,11.04
2023-04-03T06:33:18.702Z,11.24
2023-04-03T06:35:46.647Z,11.49
2023-04-03T06:38:14.059Z,11.54
2023-04-03T06:40:41.188Z,11.47
2023-04-03T06:43:08.602Z,11.33
2023-04-03T06:45:37.535Z,11.83
2023-04-03T06:48:06.271Z,11.75
2023-04-03T06:50:33.463Z,11.02
2023-04-03T06:53:01.820Z,10.59
2023-04-03T06:55:28.888Z,11.17
2023-04-03T06:57:56.034Z,10.58
2023-04-03T07:00:23.207Z,10.54
2023-04-03T07:02:50.657Z,10.83
2023-04-03T07:05:18.071Z,10.78
2023-04-03T07:07:45.755Z,10.69
2023-04-03T07:10:13.415Z,11.05
2023-04-03T07:12:40.845Z,11.16
2023-04-03T07:15:09.113Z,11.07
2023-04-03T07:17:37.657Z,10.55
2023-04-03T07:20:05.279Z,10.65
2023-04-03T07:22:32.914Z,10.98
2023-04-03T07:25:00.575Z,10.76
2023-04-03T07:27:29.152Z,10.82
2023-04-03T07:29:57.137Z,11.55
2023-04-03T07:32:24.235Z,11.19
2023-04-03T07:34:52.095Z,12.04
2023-04-03T07:37:19.601Z,11.94
2023-04-03T07:39:46.926Z,12.25
2023-04-03T07:42:14.243Z,12.57
2023-04-03T07:44:41.761Z,12.90
2023-04-03T07:47:09.282Z,12.96
2023-04-03T07:49:40.704Z,12.44
2023-04-03T07:52:10.084Z,12.78
2023-04-03T07:54:37.607Z,12.94
2023-04-03T07:57:05.786Z,13.44
2023-04-03T07:59:33.143Z,13.33
2023-04-03T08:02:00.286Z,14.00
2023-04-03T08:04:27.936Z,14.50
2023-04-03T08:06:55.199Z,15.18
2023-04-03T08:09:22.809Z,14.89
2023-04-03T08:11:50.352Z,15.47
2023-04-03T08:14:19.569Z,15.10
2023-04-03T08:16:47.660Z,15.75
2023-04-03T08:19:25.398Z,15.79
2023-04-03T08:21:55.475Z,15.20
2023-04-03T08:24:22.828Z,15.81
2023-04-03T08:26:50.431Z,15.99
2023-04-03T08:29:17.656Z,16.51
2023-04-03T08:31:45.817Z,16.20
2023-04-03T08:34:14.216Z,16.44
2023-04-03T08:36:41.819Z,16.63
2023-04-03T08:39:08.908Z,17.11
2023-04-03T08:41:40.515Z,17.50
2023-04-03T08:44:47.931Z,16.96
2023-04-03T08:47:21.625Z,17.98
2023-04-03T08:49:54.063Z,17.24
2023-04-03T08:52:33.767Z,17.98
2023-04-03T08:55:06.066Z,18.11
2023-04-03T08:57:40.547Z,17.34
2023-04-03T09:00:15.638Z,17.67
2023-04-03T09:02:48.150Z,18.26
2023-04-03T09:05:39.791Z,18.13
2023-04-03T09:08:33.010Z,18.54
2023-04-03T09:11:12.255Z,18.78
2023-04-03T09:14:03.699Z,18.40
2023-04-03T09:16:47.855Z,18.09
2023-04-03T09:19:33.743Z,18.76
2023-04-03T09:22:13.560Z,18.87
2023-04-03T09:24:41.074Z,19.10
2023-04-03T09:27:11.063Z,18.40
2023-04-03T09:29:41.310Z,18.50
2023-04-03T09:32:28.264Z,19.11
2023-04-03T09:35:18.973Z,19.05
2023-04-03T09:37:49.643Z,19.11
2023-04-03T09:40:29.173Z,18.70
2023-04-03T09:43:01.740Z,18.98
2023-04-03T09:45:36.020Z,19.09
2023-04-03T09:48:17.369Z,19.17
2023-04-03T09:50:59.149Z,19.00
2023-04-03T09:53:39.323Z,19.40
2023-04-03T09:56:19.142Z,19.24
2023-04-03T09:58:51.778Z,19.16
2023-04-03T10:01:34.154Z,18.71
2023-04-03T10:04:12.700Z,19.35
2023-04-03T10:06:47.785Z,19.10
2023-04-03T10:09:28.168Z,19.09
2023-04-03T10:12:07.620Z,19.10
2023-04-03T10:14:36.174Z,19.17
2023-04-03T10:17:20.943Z,18.72
2023-04-03T10:20:27.308Z,18.87
2023-04-03T10:23:21.132Z,18.92
2023-04-03T10:25:56.921Z,18.67
2023-04-03T10:28:36.610Z,18.83
2023-04-03T10:31:25.149Z,18.82
2023-04-03T10:34:04.232Z,18.06
2023-04-03T10:37:07.541Z,18.65
2023-04-03T10:39:47.668Z,17.89
2023-04-03T10:42:38.242Z,17.67
2023-04-03T10:45:21.016Z,17.53
2023-04-03T10:47:48.530Z,17.35
2023-04-03T10:50:30.686Z,17.93
2023-04-03T10:53:19.360Z,17.21
2023-04-03T10:55:53.235Z,17.09
2023-04-03T10:58:30.075Z,17.22
2023-04-03T11:01:01.159Z,17.54
2023-04-03T11:03:31.873Z,17.78
2023-04-03T11:06:00.640Z,17.17
2023-04-03T11:08:33.540Z,17.65
2023-04-03T11:11:11.535Z,17.40
2023-04-03T11:14:09.576Z,17.20
2023-04-03T11:16:51.080Z,17.56
2023-04-03T11:20:07.458Z,17.79
2023-04-03T11:22:42.567Z,17.98
2023-04-03T11:25:10.137Z,17.73
2023-04-03T11:27:54.199Z,18.27
2023-04-03T11:30:30.032Z,18.56
2023-04-03T11:33:06.144Z,18.30
2023-04-03T11:35:34.115Z,18.43
2023-04-03T11:38:02.512Z,18.19
2023-04-03T11:40:31.897Z,18.58
2023-04-03T11:43:44.431Z,18.40
2023-04-03T11:46:11.973Z,18.13
2023-04-03T11:48:41.655Z,18.26
2023-04-03T11:51:17.014Z,18.55
2023-04-03T11:53:44.983Z,18.08
2023-04-03T11:56:24.624Z,17.95
2023-04-03T11:59:07.081Z,17.89
2023-04-03T12:02:04.328Z,18.24
2023-04-03T12:04:33.209Z,18.25
2023-04-03T12:07:04.976Z,18.50
2023-04-03T12:09:41.736Z,18.35
2023-04-03T12:12:41.703Z,18.44
2023-04-03T12:15:38.692Z,18.98
2023-04-03T12:18:43.478Z,18.73
2023-04-03T12:21:15.031Z,19.11
2023-04-03T12:24:09.534Z,18.72
2023-04-03T12:26:48.635Z,19.02
2023-04-03T12:29:35.469Z,19.41
2023-04-03T12:32:09.070Z,19.48
2023-04-03T12:34:58.614Z,19.27
2023-04-03T12:37:44.444Z,19.84
2023-04-03T12:40:26.253Z,19.71
2023-04-03T12:43:00.277Z,19.78
2023-04-03T12:45:28.253Z,20.05
2023-04-03T12:47:57.328Z,19.93
2023-04-03T12:50:33.787Z,20.03
2023-04-03T12:53:04.817Z,19.65
2023-04-03T12:55:32.152Z,20.56
2023-04-03T12:58:15.908Z,19.93
2023-04-03T13:00:43.375Z,20.31
2023-04-03T13:03:30.839Z,20.54
2023-04-03T13:06:01.602Z,20.09
2023-04-03T13:08:29.403Z,20.82
2023-04-03T13:11:02.681Z,20.97
2023-04-03T13:13:30.684Z,20.33
2023-04-03T13:15:58.389Z,20.38
2023-04-03T13:18:30.123Z,20.52
2023-04-03T13:21:00.113Z,20.48
2023-04-03T13:23:27.543Z,20.60
2023-04-03T13:25:55.736Z,20.73
2023-04-03T13:28:24.520Z,20.89
2023-04-03T13:31:07.558Z,20.81
2023-04-03T13:33:38.874Z,20.99
2023-04-03T13:36:32.481Z,20.74
2023-04-03T13:39:08.645Z,21.30
2023-04-03T13:41:38.330Z,21.40
2023-04-03T13:44:24.211Z,21.25
2023-04-03T13:46:56.233Z,21.34
2023-04-03T13:49:36.247Z,21.11
2023-04-03T13:52:25.573Z,21.72
2023-04-03T13:54:55.960Z,21.52
2023-04-03T13:57:23.364Z,21.71
2023-04-03T13:59:51.185Z,21.76
2023-04-03T14:02:21.387Z,21.91
2023-04-03T14:04:53.958Z,22.04
2023-04-03T14:07:22.094Z,21.95
2023-04-03T14:09:49.820Z,22.37
2023-04-03T14:12:31.472Z,22.29
2023-04-03T14:15:01.675Z,22.27
2023-04-03T14:17:29.356Z,22.60
2023-04-03T14:19:56.975Z,22.50
2023-04-03T14:22:26.822Z,22.82
2023-04-03T14:24:54.111Z,22.63
2023-04-03T14:27:23.446Z,22.50
2023-04-03T14:29:52.276Z,22.65
2023-04-03T14:32:21.355Z,23.00
2023-04-03T14:34:48.870Z,22.67
2023-04-03T14:37:18.721Z,23.13
2023-04-03T14:39:46.022Z,23.36
2023-04-03T14:42:15.923Z,23.55
2023-04-03T14:44:43.614Z,23.53
2023-04-03T14:47:29.986Z,23.21
2023-04-03T14:50:00.262Z,23.41
2023-04-03T14:52:33.168Z,23.30
2023-04-03T14:55:01.180Z,23.37
2023-04-03T14:57:28.937Z,23.66
2023-04-03T14:59:56.532Z,23.16
2023-04-03T15:02:27.624Z,23.90
2023-04-03T15:04:56.540Z,23.32
2023-04-03T15:07:24.820Z,23.71
2023-04-03T15:09:52.043Z,23.73
2023-04-03T15:12:19.638Z,23.74
2023-04-03T15:14:57.485Z,23.67
2023-04-03T15:17:27.738Z,24.02
2023-04-03T15:19:55.233Z,23.70
2023-04-03T15:22:22.695Z,24.19
2023-04-03T15:24:49.832Z,24.21
2023-04-03T15:27:17.630Z,24.21
2023-04-03T15:29:45.307Z,24.29
2023-04-03T15:32:12.708Z,24.34
2023-04-03T15:34:40.346Z,24.25
2023-04-03T15:37:07.538Z,24.59
2023-04-03T15:39:34.708Z,24.53
2023-04-03T15:42:06.604Z,24.73
2023-04-03T15:44:34.895Z,24.74
2023-04-03T15:47:02.475Z,24.89
2023-04-03T15:49:30.152Z,25.22
2023-04-03T15:51:57.882Z,25.01
2023-04-03T15:54:26.371Z,25.40
2023-04-03T15:56:54.429Z,25.27
2023-04-03T15:59:22.001Z,25.56
2023-04-03T16:01:50.034Z,25.55
2023-04-03T16:04:18.056Z,25.66
2023-04-03T16:06:46.825Z,25.89
2023-04-03T16:09:14.226Z,25.80
2023-04-03T16:11:41.443Z,25.88
2023-04-03T16:14:09.132Z,26.05
2023-04-03T16:16:36.685Z,25.64
2023-04-03T16:19:03.879Z,25.81
2023-04-03T16:21:31.357Z,25.32
2023-04-03T16:23:59.270Z,25.34
2023-04-03T16:26:27.422Z,25.65
2023-04-03T16:28:55.281Z,25.67
2023-04-03T16:31:23.318Z,25.81
2023-04-03T16:33:50.679Z,25.51
2023-04-03T16:36:18.294Z,25.57
2023-04-03T16:38:45.408Z,25.61
2023-04-03T16:41:12.805Z,25.65
2023-04-03T16:46:13.253Z,25.92
2023-04-03T16:48:40.561Z,26.10
2023-04-03T16:51:07.951Z,26.13
2023-04-03T16:53:35.186Z,26.30
2023-04-03T16:56:02.584Z,26.55
2023-04-03T16:58:29.716Z,26.49
2023-04-03T17:00:57.028Z,26.29
2023-04-03T17:03:26.264Z,26.48
2023-04-03T17:05:53.816Z,26.57
2023-04-03T17:08:21.268Z,26.72
2023-04-03T17:10:50.196Z,26.79
2023-04-03T17:13:18.044Z,26.81
2023-04-03T17:15:45.461Z,26.82
2023-04-03T17:18:13.280Z,26.80
2023-04-03T17:20:40.901Z,26.75
2023-04-03T17:23:08.092Z,26.87
2023-04-03T17:25:44.147Z,26.76
2023-04-03T17:28:11.513Z,27.07
2023-04-03T17:30:38.969Z,27.10
2023-04-03T17:33:06.422Z,27.08
2023-04-03T17:35:33.497Z,27.22
2023-04-03T17:38:00.970Z,27.52
2023-04-03T17:40:28.511Z,27.43
2023-04-03T17:42:55.748Z,27.14
2023-04-03T17:45:23.819Z,27.20
2023-04-03T17:47:52.508Z,27.08
2023-04-03T17:50:20.365Z,27.30
2023-04-03T17:52:47.789Z,27.28
2023-04-03T17:55:17.242Z,27.25
2023-04-03T17:57:44.909Z,27.31
2023-04-03T18:00:12.819Z,27.15
2023-04-03T18:02:41.947Z,27.07
2023-04-03T18:05:12.889Z,27.66
2023-04-03T18:07:40.365Z,27.46
2023-04-03T18:10:08.846Z,27.55
2023-04-03T18:12:37.155Z,26.95
2023-04-03T18:15:05.011Z,27.18
2023-04-03T18:17:32.603Z,27.31
2023-04-03T18:19:59.656Z,27.14
2023-04-03T18:22:27.544Z,27.18
2023-04-03T18:24:54.664Z,27.55
2023-04-03T18:27:22.829Z,27.81
2023-04-03T18:29:52.796Z,27.90
2023-04-03T18:32:20.881Z,27.15
2023-04-03T18:34:48.266Z,27.74
2023-04-03T18:37:16.105Z,28.08
2023-04-03T18:39:43.806Z,28.03
2023-04-03T18:42:16.671Z,28.08
2023-04-03T18:44:45.124Z,28.07
2023-04-03T18:47:12.606Z,28.28
2023-04-03T18:49:40.438Z,28.43
2023-04-03T18:52:08.131Z,28.45
2023-04-03T18:54:37.014Z,28.15
2023-04-03T18:57:04.754Z,28.47
2023-04-03T18:59:32.237Z,28.35
2023-04-03T19:02:00.426Z,28.94
2023-04-03T19:04:28.018Z,28.82
2023-04-03T19:06:55.477Z,28.93
2023-04-03T19:09:23.155Z,28.93
2023-04-03T19:11:50.245Z,29.30
2023-04-03T19:14:17.460Z,29.08
2023-04-03T19:16:45.048Z,29.04
2023-04-03T19:19:12.374Z,29.23
2023-04-03T19:21:41.139Z,29.05
2023-04-03T19:24:12.516Z,29.10
2023-04-03T19:26:41.107Z,28.90
2023-04-03T19:29:08.724Z,29.13
2023-04-03T19:31:37.238Z,28.86
2023-04-03T19:34:05.271Z,28.93
2023-04-03T19:36:33.265Z,29.06
2023-04-03T19:39:00.741Z,29.32
2023-04-03T19:41:28.772Z,29.46
2023-04-03T19:43:56.530Z,29.15
2023-04-03T19:46:27.871Z,29.30
2023-04-03T19:48:55.282Z,29.16
2023-04-03T19:51:22.399Z,29.46
2023-04-03T19:53:50.015Z,29.31
2023-04-03T19:56:17.554Z,29.19
2023-04-03T19:58:45.286Z,29.24
2023-04-03T20:01:12.282Z,29.75
2023-04-03T20:03:39.541Z,29.44
2023-04-03T20:06:06.618Z,29.60
2023-04-03T20:08:34.396Z,29.34
2023-04-03T20:11:01.771Z,29.67
2023-04-03T20:13:28.817Z,29.34
2023-04-03T20:15:56.237Z,29.44
2023-04-03T20:18:23.790Z,29.36
2023-04-03T20:20:55.056Z,29.94
2023-04-03T20:23:22.765Z,29.61
2023-04-03T20:26:05.958Z,29.53
2023-04-03T20:28:36.390Z,29.74
2023-04-03T20:31:04.840Z,29.85
2023-04-03T20:33:31.893Z,29.58
2023-04-03T20:35:58.930Z,29.74
2023-04-03T20:38:26.101Z,30.07
2023-04-03T20:40:53.846Z,30.27
2023-04-03T20:43:22.854Z,30.56
2023-04-03T20:45:50.530Z,30.34
2023-04-03T20:48:18.132Z,30.50
2023-04-03T20:50:47.299Z,30.41
2023-04-03T20:53:17.585Z,30.47
2023-04-03T20:56:00.056Z,30.63
2023-04-03T20:58:30.208Z,30.68
2023-04-03T21:00:57.450Z,30.57
2023-04-03T21:03:25.729Z,30.88
2023-04-03T21:06:00.492Z,31.46
2023-04-03T21:09:05.101Z,31.58
2023-04-03T21:12:09.848Z,31.30
2023-04-03T21:15:14.435Z,31.11
2023-04-03T21:18:08.297Z,31.83
2023-04-03T21:20:36.927Z,31.86
2023-04-03T21:23:05.146Z,32.05
2023-04-03T21:25:32.842Z,32.01
2023-04-03T21:28:00.291Z,32.11
2023-04-03T21:30:27.476Z,32.41
2023-04-03T21:32:54.629Z,32.13
2023-04-03T21:35:22.143Z,32.67
2023-04-03T21:37:49.188Z,32.65
2023-04-03T21:40:16.482Z,32.44
2023-04-03T21:42:43.682Z,32.63
2023-04-03T21:45:11.748Z,32.77
2023-04-03T21:47:40.098Z,32.42
2023-04-03T21:50:08.060Z,32.56
2023-04-03T21:52:35.883Z,32.38
2023-04-03T21:55:03.523Z,31.99
2023-04-03T21:57:31.023Z,31.89
2023-04-03T21:59:58.225Z,31.88
2023-04-03T22:02:26.895Z,31.94
2023-04-03T22:04:54.202Z,31.65
2023-04-03T22:07:21.366Z,31.10
2023-04-03T22:09:48.856Z,31.24
2023-04-03T22:12:16.476Z,31.16
2023-04-03T22:14:44.236Z,31.16
2023-04-03T22:17:11.770Z,31.03
2023-04-03T22:19:39.168Z,30.53
2023-04-03T22:22:07.432Z,30.55
2023-04-03T22:24:34.691Z,30.71
2023-04-03T22:27:02.942Z,30.17
2023-04-03T22:29:30.048Z,29.87
2023-04-03T22:31:57.263Z,29.95
2023-04-03T22:34:24.605Z,29.91
2023-04-03T22:36:53.291Z,30.16
2023-04-03T22:39:20.787Z,29.95
2023-04-03T22:41:47.970Z,29.69
2023-04-03T22:44:17.515Z,30.02
2023-04-03T22:46:46.193Z,30.26
2023-04-03T22:49:13.349Z,29.80
2023-04-03T22:51:40.766Z,29.89
2023-04-03T22:54:08.108Z,29.94
2023-04-03T22:56:35.198Z,30.00
2023-04-03T22:59:02.693Z,29.48
2023-04-03T23:01:30.641Z,29.46
2023-04-03T23:03:57.829Z,29.32
2023-04-03T23:06:26.358Z,29.85
2023-04-03T23:08:53.917Z,29.30
2023-04-03T23:11:21.665Z,29.37
2023-04-03T23:13:49.348Z,29.12
2023-04-03T23:16:17.092Z,29.16
2023-04-03T23:18:44.156Z,29.08
2023-04-03T23:21:11.629Z,29.34
2023-04-03T23:23:39.075Z,28.99
2023-04-03T23:26:06.275Z,29.37
2023-04-03T23:28:33.490Z,29.10
2023-04-03T23:31:02.669Z,28.81
2023-04-03T23:33:31.100Z,29.01
2023-04-03T23:35:58.894Z,29.28
2023-04-03T23:38:25.982Z,29.24
2023-04-03T23:40:53.389Z,29.07
2023-04-03T23:43:21.214Z,29.20
2023-04-03T23:45:48.526Z,29.68
2023-04-03T23:48:15.926Z,29.21
2023-04-03T23:50:43.614Z,29.41
2023-04-03T23:53:13.127Z,29.20
2023-04-03T23:55:41.339Z,29.02
2023-04-03T23:58:08.372Z,29.16
